createdAt,value
2023-02-22T00:02:14.710Z,96.95
2023-02-22T00:04:43.450Z,96.74
2023-02-22T00:07:11.799Z,96.85
2023-02-22T00:09:40.103Z,96.32
2023-02-22T00:12:10.377Z,96.48
2023-02-22T00:14:40.473Z,96.45
2023-02-22T00:17:08.806Z,95.55
2023-02-22T00:19:37.202Z,95.42
2023-02-22T00:22:05.450Z,95.27
2023-02-22T00:24:33.971Z,95.10
2023-02-22T00:27:03.730Z,95.10
2023-02-22T00:29:34.510Z,95.15
2023-02-22T00:32:03.181Z,95.73
2023-02-22T00:34:31.985Z,96.54
2023-02-22T00:37:03.075Z,96.25
2023-02-22T00:39:31.366Z,95.84
2023-02-22T00:42:00.881Z,95.58
2023-02-22T00:44:30.804Z,95.58
2023-02-22T00:46:58.957Z,95.41
2023-02-22T00:49:27.301Z,95.33
2023-02-22T00:51:55.537Z,95.16
2023-02-22T00:54:23.773Z,95.16
2023-02-22T00:56:52.236Z,95.21
2023-02-22T00:59:20.437Z,95.14
2023-02-22T01:01:48.692Z,95.10
2023-02-22T01:04:18.834Z,95.31
2023-02-22T01:06:47.132Z,95.56
2023-02-22T01:09:15.922Z,95.36
2023-02-22T01:11:45.518Z,95.34
2023-02-22T01:14:13.915Z,95.21
2023-02-22T01:16:44.581Z,95.07
2023-02-22T01:19:12.871Z,95.18
2023-02-22T01:21:41.263Z,95.00
2023-02-22T01:24:10.063Z,95.15
2023-02-22T01:26:38.526Z,95.27
2023-02-22T01:29:08.681Z,95.41
2023-02-22T01:31:37.165Z,95.84
2023-02-22T01:34:06.893Z,95.56
2023-02-22T01:36:40.279Z,96.34
2023-02-22T01:39:11.456Z,95.76
2023-02-22T01:41:39.733Z,96.36
2023-02-22T01:44:28.314Z,95.93
2023-02-22T01:46:59.612Z,95.92
2023-02-22T01:49:44.716Z,95.96
2023-02-22T01:52:18.098Z,95.42
2023-02-22T01:54:52.181Z,95.65
2023-02-22T01:57:30.088Z,95.19
2023-02-22T02:00:10.359Z,95.32
2023-02-22T02:02:59.125Z,95.87
2023-02-22T02:05:31.593Z,95.68
2023-02-22T02:08:05.846Z,95.65
2023-02-22T02:10:35.253Z,95.25
2023-02-22T02:13:04.153Z,95.43
2023-02-22T02:15:34.045Z,95.91
2023-02-22T02:18:07.837Z,96.29
2023-02-22T02:21:24.325Z,96.72
2023-02-22T02:24:11.550Z,96.67
2023-02-22T02:27:09.344Z,96.63
2023-02-22T02:29:55.183Z,97.06
2023-02-22T02:32:32.341Z,96.39
2023-02-22T02:35:21.718Z,97.04
2023-02-22T02:38:24.289Z,97.04
2023-02-22T02:40:58.906Z,96.57
2023-02-22T02:43:39.464Z,96.91
2023-02-22T02:46:10.717Z,96.91
2023-02-22T02:48:48.459Z,96.37
2023-02-22T02:51:18.487Z,95.91
2023-02-22T02:53:49.138Z,95.90
2023-02-22T02:56:18.793Z,95.57
2023-02-22T02:58:53.115Z,95.46
2023-02-22T03:01:43.068Z,95.26
2023-02-22T03:04:18.430Z,95.07
2023-02-22T03:07:17.559Z,94.88
2023-02-22T03:10:27.368Z,94.52
2023-02-22T03:13:14.551Z,94.70
2023-02-22T03:16:02.998Z,94.67
2023-02-22T03:18:47.468Z,94.64
2023-02-22T03:21:37.043Z,94.80
2023-02-22T03:24:08.612Z,94.76
2023-02-22T03:26:48.648Z,94.32
2023-02-22T03:29:20.574Z,94.30
2023-02-22T03:31:55.728Z,94.46
2023-02-22T03:34:30.036Z,94.59
2023-02-22T03:37:14.464Z,94.58
2023-02-22T03:39:46.955Z,94.59
2023-02-22T03:42:21.147Z,94.50
2023-02-22T03:44:51.848Z,94.27
2023-02-22T03:47:32.151Z,94.45
2023-02-22T03:50:09.344Z,94.52
2023-02-22T03:52:38.254Z,94.36
2023-02-22T03:55:11.918Z,94.62
2023-02-22T03:57:45.049Z,94.88
2023-02-22T04:00:18.228Z,94.96
2023-02-22T04:02:47.009Z,95.33
2023-02-22T04:05:20.102Z,96.78
2023-02-22T04:07:49.566Z,96.59
2023-02-22T04:10:18.031Z,96.46
2023-02-22T04:12:46.344Z,96.08
2023-02-22T04:15:20.157Z,97.26
2023-02-22T04:17:50.141Z,99.56
2023-02-22T04:20:20.121Z,98.76
2023-02-22T04:23:02.876Z,100.00
2023-02-22T04:25:31.762Z,100.00
2023-02-22T04:28:04.923Z,100.00
2023-02-22T04:30:44.184Z,99.72
2023-02-22T04:33:17.356Z,99.16
2023-02-22T04:35:46.990Z,99.69
2023-02-22T04:38:16.016Z,99.92
2023-02-22T04:40:44.402Z,99.85
2023-02-22T04:43:12.760Z,99.60
2023-02-22T04:45:41.960Z,99.96
2023-02-22T04:48:10.901Z,100.00
2023-02-22T04:50:40.672Z,99.98
2023-02-22T04:53:09.319Z,99.91
2023-02-22T04:55:39.305Z,98.91
2023-02-22T04:58:09.496Z,98.84
2023-02-22T05:00:38.762Z,98.84
2023-02-22T05:03:09.127Z,98.46
2023-02-22T05:05:37.603Z,98.68
2023-02-22T05:08:06.133Z,97.92
2023-02-22T05:10:34.418Z,97.20
2023-02-22T05:13:04.186Z,96.78
2023-02-22T05:15:32.857Z,96.50
2023-02-22T05:18:01.416Z,96.28
2023-02-22T05:20:32.811Z,96.08
2023-02-22T05:23:02.813Z,95.72
2023-02-22T05:25:31.455Z,95.46
2023-02-22T05:28:07.738Z,95.32
2023-02-22T05:30:39.925Z,95.32
2023-02-22T05:33:09.594Z,94.72
2023-02-22T05:35:38.107Z,94.50
2023-02-22T05:38:08.408Z,94.18
2023-02-22T05:40:38.775Z,94.40
2023-02-22T05:43:07.571Z,94.73
2023-02-22T05:45:36.391Z,95.21
2023-02-22T05:48:05.283Z,97.58
2023-02-22T05:50:34.262Z,98.35
2023-02-22T05:53:05.789Z,99.49
2023-02-22T05:55:34.214Z,100.00
2023-02-22T05:58:06.045Z,100.00
2023-02-22T06:00:34.548Z,100.00
2023-02-22T06:03:08.418Z,100.00
2023-02-22T06:05:38.021Z,100.00
2023-02-22T06:08:08.341Z,100.00
2023-02-22T06:10:36.587Z,100.00
2023-02-22T06:13:06.788Z,100.00
2023-02-22T06:15:35.090Z,100.00
2023-02-22T06:18:03.456Z,100.00
2023-02-22T06:20:33.499Z,100.00
2023-02-22T06:23:01.969Z,100.00
2023-02-22T06:25:32.120Z,100.00
2023-02-22T06:28:01.343Z,100.00
2023-02-22T06:30:31.160Z,100.00
2023-02-22T06:32:59.475Z,100.00
2023-02-22T06:35:28.519Z,100.00
2023-02-22T06:37:56.775Z,100.00
2023-02-22T06:40:29.620Z,100.00
2023-02-22T06:43:00.072Z,100.00
2023-02-22T06:45:28.826Z,100.00
2023-02-22T06:47:57.095Z,100.00
2023-02-22T06:50:29.064Z,100.00
2023-02-22T06:52:58.451Z,100.00
2023-02-22T06:55:32.414Z,100.00
2023-02-22T06:58:01.030Z,100.00
2023-02-22T07:00:31.413Z,100.00
2023-02-22T07:03:00.196Z,100.00
2023-02-22T07:05:29.053Z,100.00
2023-02-22T07:08:04.854Z,100.00
2023-02-22T07:10:34.641Z,100.00
2023-02-22T07:13:06.203Z,100.00
2023-02-22T07:15:35.988Z,100.00
2023-02-22T07:18:04.524Z,100.00
2023-02-22T07:20:32.922Z,100.00
2023-02-22T07:23:01.854Z,100.00
2023-02-22T07:25:30.201Z,100.00
2023-02-22T07:27:59.730Z,100.00
2023-02-22T07:30:34.281Z,100.00
2023-02-22T07:33:05.842Z,100.00
2023-02-22T07:35:52.500Z,100.00
2023-02-22T07:38:21.604Z,100.00
2023-02-22T07:40:50.081Z,100.00
2023-02-22T07:43:21.811Z,100.00
2023-02-22T07:45:52.759Z,100.00
2023-02-22T07:48:23.923Z,100.00
2023-02-22T07:50:52.243Z,100.00
2023-02-22T07:53:28.664Z,100.00
2023-02-22T07:55:58.356Z,100.00
2023-02-22T07:58:29.807Z,100.00
2023-02-22T08:00:58.806Z,100.00
2023-02-22T08:03:28.898Z,100.00
2023-02-22T08:06:00.662Z,100.00
2023-02-22T08:08:30.197Z,100.00
2023-02-22T08:10:59.479Z,100.00
2023-02-22T08:13:27.691Z,100.00
2023-02-22T08:15:56.231Z,100.00
2023-02-22T08:18:25.897Z,100.00
2023-02-22T08:20:55.030Z,100.00
2023-02-22T08:23:25.689Z,100.00
2023-02-22T08:25:55.327Z,100.00
2023-02-22T08:28:25.326Z,100.00
2023-02-22T08:30:53.965Z,100.00
2023-02-22T08:33:22.794Z,100.00
2023-02-22T08:35:51.968Z,100.00
2023-02-22T08:38:25.521Z,100.00
2023-02-22T08:40:53.821Z,100.00
2023-02-22T08:43:23.536Z,100.00
2023-02-22T08:45:52.665Z,100.00
2023-02-22T08:48:21.707Z,100.00
2023-02-22T08:50:50.120Z,100.00
2023-02-22T08:53:18.339Z,100.00
2023-02-22T08:55:46.866Z,100.00
2023-02-22T08:58:15.068Z,100.00
2023-02-22T09:00:44.996Z,100.00
2023-02-22T09:03:15.483Z,100.00
2023-02-22T09:05:47.286Z,100.00
2023-02-22T09:08:16.878Z,100.00
2023-02-22T09:10:45.514Z,100.00
2023-02-22T09:13:14.195Z,100.00
2023-02-22T09:15:43.012Z,100.00
2023-02-22T09:18:14.864Z,100.00
2023-02-22T09:20:43.508Z,100.00
2023-02-22T09:23:11.844Z,100.00
2023-02-22T09:25:41.133Z,100.00
2023-02-22T09:28:10.966Z,100.00
2023-02-22T09:30:40.514Z,100.00
2023-02-22T09:33:21.760Z,100.00
2023-02-22T09:35:50.293Z,100.00
2023-02-22T09:38:25.008Z,100.00
2023-02-22T09:41:12.430Z,100.00
2023-02-22T09:43:51.521Z,100.00
2023-02-22T09:46:38.658Z,100.00
2023-02-22T09:49:16.098Z,99.93
2023-02-22T09:52:01.942Z,99.93
2023-02-22T09:54:38.023Z,99.97
2023-02-22T09:57:09.910Z,99.96
2023-02-22T09:59:48.187Z,99.78
2023-02-22T10:02:38.867Z,98.67
2023-02-22T10:05:17.986Z,96.78
2023-02-22T10:08:06.034Z,97.67
2023-02-22T10:10:39.467Z,98.04
2023-02-22T10:13:39.463Z,97.72
2023-02-22T10:16:25.790Z,97.98
2023-02-22T10:19:22.683Z,97.24
2023-02-22T10:22:11.132Z,98.25
2023-02-22T10:25:12.981Z,96.68
2023-02-22T10:28:00.435Z,97.03
2023-02-22T10:30:35.263Z,97.82
2023-02-22T10:33:08.683Z,97.53
2023-02-22T10:35:41.326Z,95.70
2023-02-22T10:38:24.795Z,95.32
2023-02-22T10:41:04.530Z,94.68
2023-02-22T10:43:33.530Z,93.69
2023-02-22T10:46:05.664Z,93.44
2023-02-22T10:48:38.727Z,94.41
2023-02-22T10:51:11.006Z,94.74
2023-02-22T10:53:39.827Z,94.98
2023-02-22T10:56:21.783Z,93.22
2023-02-22T10:59:02.660Z,91.83
2023-02-22T11:01:38.153Z,91.28
2023-02-22T11:04:19.242Z,89.64
2023-02-22T11:07:22.753Z,88.64
2023-02-22T11:09:52.945Z,86.63
2023-02-22T11:12:28.736Z,85.23
2023-02-22T11:14:57.765Z,85.67
2023-02-22T11:17:34.540Z,85.55
2023-02-22T11:20:02.935Z,85.54
2023-02-22T11:22:42.543Z,84.03
2023-02-22T11:25:20.162Z,82.67
2023-02-22T11:27:48.702Z,82.28
2023-02-22T11:30:35.216Z,80.85
2023-02-22T11:33:17.421Z,80.50
2023-02-22T11:35:52.894Z,78.78
2023-02-22T11:38:28.479Z,79.14
2023-02-22T11:41:22.194Z,78.49
2023-02-22T11:43:52.285Z,77.39
2023-02-22T11:46:29.239Z,76.26
2023-02-22T11:49:04.752Z,76.38
2023-02-22T11:51:58.009Z,75.69
2023-02-22T11:55:08.204Z,75.97
2023-02-22T11:57:46.665Z,75.31
2023-02-22T12:00:25.559Z,73.83
2023-02-22T12:02:57.588Z,73.14
2023-02-22T12:05:59.875Z,73.33
2023-02-22T12:08:52.329Z,73.30
2023-02-22T12:11:39.220Z,72.73
2023-02-22T12:14:34.316Z,70.33
2023-02-22T12:17:39.035Z,70.14
2023-02-22T12:20:47.812Z,70.85
2023-02-22T12:23:40.404Z,70.10
2023-02-22T12:26:13.705Z,69.57
2023-02-22T12:28:51.802Z,70.89
2023-02-22T12:31:33.904Z,70.95
2023-02-22T12:34:09.882Z,70.76
2023-02-22T12:36:47.524Z,71.01
2023-02-22T12:39:53.194Z,70.56
2023-02-22T12:42:48.290Z,71.08
2023-02-22T12:45:59.972Z,71.36
2023-02-22T12:48:43.445Z,72.08
2023-02-22T12:51:34.007Z,71.38
2023-02-22T12:54:13.730Z,70.76
2023-02-22T12:56:53.971Z,69.79
2023-02-22T12:59:29.628Z,69.04
2023-02-22T13:02:25.111Z,69.34
2023-02-22T13:04:53.644Z,68.67
2023-02-22T13:07:37.369Z,68.19
2023-02-22T13:10:59.835Z,68.32
2023-02-22T13:14:04.840Z,67.79
2023-02-22T13:17:04.158Z,68.16
2023-02-22T13:19:49.102Z,69.47
2023-02-22T13:22:58.114Z,69.57
2023-02-22T13:25:29.286Z,70.14
2023-02-22T13:28:24.262Z,70.70
2023-02-22T13:31:19.982Z,70.82
2023-02-22T13:34:22.320Z,70.59
2023-02-22T13:37:01.827Z,70.97
2023-02-22T13:39:58.118Z,71.44
2023-02-22T13:42:43.814Z,71.86
2023-02-22T13:45:52.682Z,70.84
2023-02-22T13:48:29.946Z,70.44
2023-02-22T13:51:07.041Z,70.34
2023-02-22T13:53:58.766Z,70.60
2023-02-22T13:56:28.512Z,70.44
2023-02-22T13:59:03.629Z,68.35
2023-02-22T14:01:41.025Z,68.84
2023-02-22T14:04:41.882Z,68.43
2023-02-22T14:07:26.112Z,69.30
2023-02-22T14:09:56.657Z,69.30
2023-02-22T14:12:29.286Z,68.16
2023-02-22T14:15:29.485Z,68.05
2023-02-22T14:17:59.090Z,68.34
2023-02-22T14:20:31.377Z,68.52
2023-02-22T14:23:34.059Z,69.30
2023-02-22T14:26:20.921Z,70.84
2023-02-22T14:29:11.131Z,71.07
2023-02-22T14:31:46.610Z,71.00
2023-02-22T14:35:00.906Z,71.38
2023-02-22T14:37:38.180Z,71.93
2023-02-22T14:40:21.813Z,71.50
2023-02-22T14:43:24.048Z,71.78
2023-02-22T14:45:55.142Z,72.39
2023-02-22T14:48:39.673Z,73.09
2023-02-22T14:51:21.787Z,73.28
2023-02-22T14:54:06.647Z,73.51
2023-02-22T14:56:55.852Z,73.62
2023-02-22T14:59:26.712Z,73.52
2023-02-22T15:02:13.786Z,73.64
2023-02-22T15:04:45.113Z,74.27
2023-02-22T15:07:35.907Z,74.25
2023-02-22T15:10:25.502Z,73.70
2023-02-22T15:13:09.713Z,73.70
2023-02-22T15:15:46.955Z,74.53
2023-02-22T15:18:29.515Z,74.70
2023-02-22T15:21:03.255Z,74.82
2023-02-22T15:23:55.453Z,75.72
2023-02-22T15:26:59.085Z,75.54
2023-02-22T15:29:44.713Z,75.18
2023-02-22T15:32:53.253Z,74.96
2023-02-22T15:35:31.153Z,75.81
2023-02-22T15:38:30.187Z,77.62
2023-02-22T15:41:09.876Z,78.50
2023-02-22T15:43:40.176Z,80.61
2023-02-22T15:46:10.679Z,79.66
2023-02-22T15:48:41.463Z,79.99
2023-02-22T15:51:13.986Z,81.02
2023-02-22T15:53:48.289Z,81.27
2023-02-22T15:56:26.086Z,81.30
2023-02-22T15:59:02.017Z,81.00
2023-02-22T16:01:36.886Z,81.75
2023-02-22T16:04:05.396Z,82.09
2023-02-22T16:06:37.022Z,83.95
2023-02-22T16:09:12.849Z,83.94
2023-02-22T16:11:45.812Z,83.93
2023-02-22T16:14:36.772Z,84.53
2023-02-22T16:17:35.644Z,86.16
2023-02-22T16:20:19.092Z,87.33
2023-02-22T16:22:49.715Z,88.21
2023-02-22T16:25:18.021Z,88.55
2023-02-22T16:27:55.319Z,88.14
2023-02-22T16:30:37.894Z,90.12
2023-02-22T16:33:13.913Z,91.30
2023-02-22T16:35:52.178Z,90.87
2023-02-22T16:38:21.592Z,92.64
2023-02-22T16:40:53.979Z,92.28
2023-02-22T16:43:25.588Z,91.87
2023-02-22T16:45:53.798Z,92.09
2023-02-22T16:48:25.854Z,93.65
2023-02-22T16:50:57.383Z,94.34
2023-02-22T16:53:29.317Z,95.10
2023-02-22T16:56:03.257Z,96.26
2023-02-22T16:58:36.913Z,94.71
2023-02-22T17:01:08.072Z,95.27
2023-02-22T17:03:36.409Z,96.35
2023-02-22T17:06:05.455Z,96.85
2023-02-22T17:08:33.711Z,97.11
2023-02-22T17:11:03.234Z,96.48
2023-02-22T17:13:31.673Z,96.08
2023-02-22T17:16:00.303Z,95.79
2023-02-22T17:18:34.193Z,96.72
2023-02-22T17:21:05.993Z,96.26
2023-02-22T17:23:34.152Z,96.72
2023-02-22T17:26:03.736Z,98.46
2023-02-22T17:28:32.162Z,99.27
2023-02-22T17:31:02.080Z,99.79
2023-02-22T17:33:34.125Z,99.99
2023-02-22T17:36:05.160Z,99.45
2023-02-22T17:38:34.879Z,98.90
2023-02-22T17:41:03.875Z,100.00
2023-02-22T17:43:32.330Z,100.00
2023-02-22T17:46:00.522Z,100.00
2023-02-22T17:48:29.362Z,100.00
2023-02-22T17:50:58.865Z,100.00
2023-02-22T17:53:27.197Z,100.00
2023-02-22T17:55:55.516Z,100.00
2023-02-22T17:58:26.346Z,100.00
2023-02-22T18:00:59.684Z,100.00
2023-02-22T18:03:32.690Z,100.00
2023-02-22T18:06:02.064Z,100.00
2023-02-22T18:08:35.050Z,100.00
2023-02-22T18:11:08.234Z,100.00
2023-02-22T18:13:36.429Z,100.00
2023-02-22T18:16:05.937Z,100.00
2023-02-22T18:18:34.953Z,100.00
2023-02-22T18:21:03.993Z,100.00
2023-02-22T18:23:33.592Z,100.00
2023-02-22T18:26:22.975Z,100.00
2023-02-22T18:28:53.895Z,100.00
2023-02-22T18:31:26.631Z,100.00
2023-02-22T18:33:57.814Z,100.00
2023-02-22T18:36:26.460Z,100.00
2023-02-22T18:38:58.211Z,100.00
2023-02-22T18:41:26.627Z,100.00
2023-02-22T18:43:57.653Z,100.00
2023-02-22T18:46:26.116Z,100.00
2023-02-22T18:48:56.338Z,100.00
2023-02-22T18:51:25.868Z,100.00
2023-02-22T18:54:00.656Z,100.00
2023-02-22T18:56:30.667Z,100.00
2023-02-22T18:59:04.310Z,100.00
2023-02-22T19:01:38.984Z,100.00
2023-02-22T19:04:14.249Z,100.00
2023-02-22T19:06:48.631Z,100.00
2023-02-22T19:09:18.199Z,100.00
2023-02-22T19:11:48.442Z,100.00
2023-02-22T19:14:18.448Z,100.00
2023-02-22T19:16:58.436Z,100.00
2023-02-22T19:19:26.772Z,100.00
2023-02-22T19:21:56.752Z,100.00
2023-02-22T19:24:26.349Z,100.00
2023-02-22T19:26:57.624Z,100.00
2023-02-22T19:29:26.017Z,100.00
2023-02-22T19:31:54.296Z,100.00
2023-02-22T19:34:24.841Z,100.00
2023-02-22T19:36:53.629Z,100.00
2023-02-22T19:41:52.634Z,100.00
2023-02-22T19:44:21.287Z,100.00
2023-02-22T19:46:49.558Z,100.00
2023-02-22T19:49:18.097Z,100.00
2023-02-22T19:51:51.631Z,100.00
2023-02-22T19:54:21.653Z,100.00
2023-02-22T19:56:52.897Z,100.00
2023-02-22T19:59:23.736Z,100.00
2023-02-22T20:01:56.448Z,100.00
2023-02-22T20:04:25.253Z,100.00
2023-02-22T20:06:54.892Z,100.00
2023-02-22T20:09:39.854Z,100.00
2023-02-22T20:12:08.282Z,100.00
2023-02-22T20:14:44.049Z,100.00
2023-02-22T20:17:20.584Z,100.00
2023-02-22T20:19:49.334Z,100.00
2023-02-22T20:22:19.912Z,100.00
2023-02-22T20:24:49.183Z,100.00
2023-02-22T20:27:18.718Z,100.00
2023-02-22T20:29:47.043Z,100.00
2023-02-22T20:32:16.762Z,100.00
2023-02-22T20:34:47.129Z,100.00
2023-02-22T20:37:17.621Z,100.00
2023-02-22T20:39:45.932Z,100.00
2023-02-22T20:42:15.609Z,100.00
2023-02-22T20:44:45.185Z,100.00
2023-02-22T20:47:13.315Z,100.00
2023-02-22T20:49:41.622Z,100.00
2023-02-22T20:52:09.908Z,100.00
2023-02-22T20:54:38.214Z,100.00
2023-02-22T20:57:08.187Z,100.00
2023-02-22T20:59:36.465Z,100.00
2023-02-22T21:02:05.278Z,100.00
2023-02-22T21:04:33.754Z,100.00
2023-02-22T21:07:03.287Z,100.00
2023-02-22T21:09:33.717Z,100.00
2023-02-22T21:12:02.072Z,100.00
2023-02-22T21:14:32.650Z,100.00
2023-02-22T21:17:04.867Z,100.00
2023-02-22T21:19:33.648Z,100.00
2023-02-22T21:22:06.944Z,100.00
2023-02-22T21:24:36.772Z,100.00
2023-02-22T21:27:07.676Z,100.00
2023-02-22T21:29:36.230Z,100.00
2023-02-22T21:32:05.412Z,100.00
2023-02-22T21:34:34.173Z,100.00
2023-02-22T21:37:02.639Z,100.00
2023-02-22T21:39:31.061Z,100.00
2023-02-22T21:42:00.409Z,100.00
2023-02-22T21:44:29.659Z,100.00
2023-02-22T21:46:58.062Z,100.00
2023-02-22T21:49:26.721Z,100.00
2023-02-22T21:51:55.000Z,100.00
2023-02-22T21:54:23.482Z,100.00
2023-02-22T21:56:52.264Z,100.00
2023-02-22T21:59:23.927Z,100.00
2023-02-22T22:01:56.559Z,100.00
2023-02-22T22:04:31.505Z,100.00
2023-02-22T22:07:01.630Z,100.00
2023-02-22T22:09:36.865Z,100.00
2023-02-22T22:12:05.892Z,100.00
2023-02-22T22:14:35.525Z,100.00
2023-02-22T22:17:07.220Z,100.00
2023-02-22T22:19:41.747Z,100.00
2023-02-22T22:22:10.614Z,100.00
2023-02-22T22:24:41.825Z,100.00
2023-02-22T22:27:12.984Z,100.00
2023-02-22T22:29:41.276Z,100.00
2023-02-22T22:32:10.725Z,100.00
2023-02-22T22:34:39.236Z,100.00
2023-02-22T22:37:08.823Z,100.00
2023-02-22T22:39:38.669Z,100.00
2023-02-22T22:42:09.153Z,100.00
2023-02-22T22:44:42.383Z,100.00
2023-02-22T22:47:14.146Z,100.00
2023-02-22T22:49:42.869Z,100.00
2023-02-22T22:52:19.166Z,100.00
2023-02-22T22:54:47.158Z,100.00
2023-02-22T22:57:15.768Z,100.00
2023-02-22T22:59:43.980Z,100.00
2023-02-22T23:02:12.149Z,100.00
2023-02-22T23:04:40.341Z,100.00
2023-02-22T23:07:08.630Z,100.00
2023-02-22T23:09:39.184Z,100.00
2023-02-22T23:12:16.856Z,100.00
2023-02-22T23:14:45.564Z,100.00
2023-02-22T23:17:26.960Z,100.00
2023-02-22T23:19:55.146Z,100.00
2023-02-22T23:22:23.322Z,100.00
2023-02-22T23:24:51.724Z,100.00
2023-02-22T23:27:19.900Z,100.00
2023-02-22T23:29:49.733Z,100.00
2023-02-22T23:32:18.041Z,100.00
2023-02-22T23:34:49.776Z,100.00
2023-02-22T23:37:20.988Z,100.00
2023-02-22T23:39:51.180Z,100.00
2023-02-22T23:42:19.555Z,100.00
2023-02-22T23:44:48.343Z,100.00
2023-02-22T23:47:16.556Z,100.00
2023-02-22T23:49:49.618Z,100.00
2023-02-22T23:52:24.415Z,100.00
2023-02-22T23:54:54.213Z,100.00
2023-02-22T23:57:24.871Z,100.00
2023-02-22T23:59:53.035Z,100.00
